KAKO

Details ICAO KAKO
Name COLORADO PLAINS REGIONAL
Region United States
Timezone America/Denver (UTC-6.0)
Plans Departing 8
Arriving 5
Stats Elevation 4,714 ft / 1,437 m (AMSL)
Location 40.175632° -103.222029°
Runways 1
Magnetic Variation 7.244° E
Sunrise 2018-05-23 11:32:04 UTC / 2018-05-23 05:32:04 Local
Sunset 2018-05-24 02:10:07 UTC / 2018-05-23 20:10:07 Local
Advertisement - Login to hide

Runways

ID Width Length Bearing (true) Bearing (mag) Surface Threshold Offset Overrun Length
11 100 ft / 30 m 6,989 ft / 2,130 m 119.41° 112.17° Asphalt 0 ft / 0 m 0 ft / 0 m
29 100 ft / 30 m 6,989 ft / 2,130 m 299.43° 292.19° Asphalt 0 ft / 0 m 0 ft / 0 m

Map

Weather


0- 5 10 15 20 25 30 35+ Temperature / ° C

Clouds and Precipitation
Forecast for 2018-05-23 18:00 UTC. Updated 3 hours ago

Ground ~20,000 ft ~40,000 ft Winds

METAR

KAKO 231953Z AUTO 18013G19KT 10SM CLR 27/12 A2996 RMK AO2 SLP091 T02720117

TAF

Not found

Frequencies

Recorded 135.57 MHz ASOS
Unicom 122.80 MHz CTAF/UNICOM
Warning: Do not use this data for real-world aviation or navigation. No guarantee of current accuracy is given.